sensor_id;sensor_type;location;lat;lon;timestamp;P1;durP1;ratioP1;P2;durP2;ratioP2
3573;SDS011;1801;51.050;6.246;2023-03-07T00:01:09;17.43;;;7.07;;
3573;SDS011;1801;51.050;6.246;2023-03-07T00:03:34;18.10;;;7.50;;
3573;SDS011;1801;51.050;6.246;2023-03-07T00:06:01;16.40;;;6.90;;
3573;SDS011;1801;51.050;6.246;2023-03-07T00:08:26;20.35;;;6.78;;
3573;SDS011;1801;51.050;6.246;2023-03-07T00:10:52;14.17;;;6.80;;
3573;SDS011;1801;51.050;6.246;2023-03-07T00:13:17;16.33;;;7.10;;
3573;SDS011;1801;51.050;6.246;2023-03-07T00:15:42;15.93;;;7.43;;
3573;SDS011;1801;51.050;6.246;2023-03-07T00:18:07;19.40;;;7.37;;
3573;SDS011;1801;51.050;6.246;2023-03-07T00:20:32;18.30;;;6.63;;
3573;SDS011;1801;51.050;6.246;2023-03-07T00:22:58;10.00;;;5.53;;
3573;SDS011;1801;51.050;6.246;2023-03-07T00:25:23;12.43;;;5.50;;
3573;SDS011;1801;51.050;6.246;2023-03-07T00:27:48;8.03;;;4.00;;
3573;SDS011;1801;51.050;6.246;2023-03-07T00:30:13;8.67;;;4.87;;
3573;SDS011;1801;51.050;6.246;2023-03-07T00:32:38;11.30;;;5.70;;
3573;SDS011;1801;51.050;6.246;2023-03-07T00:35:04;11.00;;;5.53;;
3573;SDS011;1801;51.050;6.246;2023-03-07T00:37:29;10.63;;;4.67;;
3573;SDS011;1801;51.050;6.246;2023-03-07T00:39:54;16.27;;;6.20;;
3573;SDS011;1801;51.050;6.246;2023-03-07T00:42:20;8.67;;;4.40;;
3573;SDS011;1801;51.050;6.246;2023-03-07T00:44:45;7.10;;;3.10;;
3573;SDS011;1801;51.050;6.246;2023-03-07T00:47:10;10.17;;;6.57;;
3573;SDS011;1801;51.050;6.246;2023-03-07T00:49:35;9.50;;;5.17;;
3573;SDS011;1801;51.050;6.246;2023-03-07T00:52:00;12.10;;;4.20;;
3573;SDS011;1801;51.050;6.246;2023-03-07T00:54:26;15.50;;;5.47;;
3573;SDS011;1801;51.050;6.246;2023-03-07T00:56:51;7.53;;;4.80;;
3573;SDS011;1801;51.050;6.246;2023-03-07T00:59:16;9.87;;;5.53;;
3573;SDS011;1801;51.050;6.246;2023-03-07T01:01:41;5.93;;;3.30;;
3573;SDS011;1801;51.050;6.246;2023-03-07T01:04:06;15.90;;;5.30;;
3573;SDS011;1801;51.050;6.246;2023-03-07T01:06:32;8.80;;;3.80;;
3573;SDS011;1801;51.050;6.246;2023-03-07T01:08:58;7.60;;;4.20;;
3573;SDS011;1801;51.050;6.246;2023-03-07T01:11:24;8.60;;;4.35;;
3573;SDS011;1801;51.050;6.246;2023-03-07T01:13:49;5.37;;;2.80;;
3573;SDS011;1801;51.050;6.246;2023-03-07T01:16:16;11.90;;;5.13;;
3573;SDS011;1801;51.050;6.246;2023-03-07T01:18:42;8.18;;;4.38;;
3573;SDS011;1801;51.050;6.246;2023-03-07T01:21:12;5.82;;;3.42;;
3573;SDS011;1801;51.050;6.246;2023-03-07T01:23:38;9.05;;;4.80;;
3573;SDS011;1801;51.050;6.246;2023-03-07T01:26:03;10.80;;;3.87;;
3573;SDS011;1801;51.050;6.246;2023-03-07T01:28:28;9.80;;;5.13;;
3573;SDS011;1801;51.050;6.246;2023-03-07T01:30:57;13.77;;;5.93;;
3573;SDS011;1801;51.050;6.246;2023-03-07T01:33:23;6.80;;;4.20;;
3573;SDS011;1801;51.050;6.246;2023-03-07T01:35:48;7.50;;;3.60;;
3573;SDS011;1801;51.050;6.246;2023-03-07T01:38:13;7.20;;;3.77;;
3573;SDS011;1801;51.050;6.246;2023-03-07T01:40:38;7.50;;;3.90;;
3573;SDS011;1801;51.050;6.246;2023-03-07T01:43:25;6.17;;;3.73;;
3573;SDS011;1801;51.050;6.246;2023-03-07T01:48:15;8.00;;;4.27;;
3573;SDS011;1801;51.050;6.246;2023-03-07T01:50:40;7.60;;;3.92;;
3573;SDS011;1801;51.050;6.246;2023-03-07T01:53:06;5.60;;;3.27;;
3573;SDS011;1801;51.050;6.246;2023-03-07T01:55:33;11.68;;;5.10;;
3573;SDS011;1801;51.050;6.246;2023-03-07T01:58:00;6.55;;;3.20;;
3573;SDS011;1801;51.050;6.246;2023-03-07T02:00:27;7.28;;;4.32;;
3573;SDS011;1801;51.050;6.246;2023-03-07T02:03:03;5.60;;;3.70;;
3573;SDS011;1801;51.050;6.246;2023-03-07T02:05:31;9.10;;;4.35;;
3573;SDS011;1801;51.050;6.246;2023-03-07T02:07:58;7.32;;;4.00;;
3573;SDS011;1801;51.050;6.246;2023-03-07T02:10:24;12.20;;;5.00;;
3573;SDS011;1801;51.050;6.246;2023-03-07T02:12:49;11.57;;;6.80;;
3573;SDS011;1801;51.050;6.246;2023-03-07T02:15:15;5.13;;;2.87;;
3573;SDS011;1801;51.050;6.246;2023-03-07T02:17:40;14.10;;;5.87;;
3573;SDS011;1801;51.050;6.246;2023-03-07T02:20:12;13.47;;;6.40;;
3573;SDS011;1801;51.050;6.246;2023-03-07T02:22:43;22.67;;;7.75;;
3573;SDS011;1801;51.050;6.246;2023-03-07T02:25:23;15.37;;;6.30;;
3573;SDS011;1801;51.050;6.246;2023-03-07T02:27:51;22.73;;;5.82;;
3573;SDS011;1801;51.050;6.246;2023-03-07T02:30:17;15.98;;;8.20;;
3573;SDS011;1801;51.050;6.246;2023-03-07T02:32:43;15.20;;;6.87;;
3573;SDS011;1801;51.050;6.246;2023-03-07T02:35:15;12.87;;;6.63;;
3573;SDS011;1801;51.050;6.246;2023-03-07T02:37:41;16.67;;;8.38;;
3573;SDS011;1801;51.050;6.246;2023-03-07T02:40:07;13.60;;;6.45;;
3573;SDS011;1801;51.050;6.246;2023-03-07T02:42:34;16.40;;;7.15;;
3573;SDS011;1801;51.050;6.246;2023-03-07T02:45:02;9.45;;;5.55;;
3573;SDS011;1801;51.050;6.246;2023-03-07T02:47:28;14.30;;;5.93;;
3573;SDS011;1801;51.050;6.246;2023-03-07T02:49:53;12.53;;;6.57;;
3573;SDS011;1801;51.050;6.246;2023-03-07T02:52:19;15.33;;;6.50;;
3573;SDS011;1801;51.050;6.246;2023-03-07T02:54:45;15.35;;;6.25;;
3573;SDS011;1801;51.050;6.246;2023-03-07T02:57:10;13.03;;;6.30;;
3573;SDS011;1801;51.050;6.246;2023-03-07T02:59:35;17.13;;;6.80;;
3573;SDS011;1801;51.050;6.246;2023-03-07T03:02:01;11.87;;;6.30;;
3573;SDS011;1801;51.050;6.246;2023-03-07T03:04:26;6.33;;;3.60;;
3573;SDS011;1801;51.050;6.246;2023-03-07T03:06:52;14.23;;;7.10;;
3573;SDS011;1801;51.050;6.246;2023-03-07T03:09:17;15.03;;;7.40;;
3573;SDS011;1801;51.050;6.246;2023-03-07T03:11:42;12.80;;;5.47;;
3573;SDS011;1801;51.050;6.246;2023-03-07T03:14:07;18.83;;;7.53;;
3573;SDS011;1801;51.050;6.246;2023-03-07T03:16:32;5.23;;;3.50;;
3573;SDS011;1801;51.050;6.246;2023-03-07T03:18:58;19.43;;;8.10;;
3573;SDS011;1801;51.050;6.246;2023-03-07T03:21:24;15.82;;;8.35;;
3573;SDS011;1801;51.050;6.246;2023-03-07T03:23:49;21.80;;;7.70;;
3573;SDS011;1801;51.050;6.246;2023-03-07T03:26:14;14.07;;;5.50;;
3573;SDS011;1801;51.050;6.246;2023-03-07T03:28:40;13.40;;;7.23;;
3573;SDS011;1801;51.050;6.246;2023-03-07T03:31:06;13.07;;;6.93;;
3573;SDS011;1801;51.050;6.246;2023-03-07T03:33:32;17.05;;;7.65;;
3573;SDS011;1801;51.050;6.246;2023-03-07T03:35:57;17.93;;;7.83;;
3573;SDS011;1801;51.050;6.246;2023-03-07T03:38:23;14.17;;;7.40;;
3573;SDS011;1801;51.050;6.246;2023-03-07T03:40:48;11.17;;;4.63;;
3573;SDS011;1801;51.050;6.246;2023-03-07T03:43:14;20.27;;;7.50;;
3573;SDS011;1801;51.050;6.246;2023-03-07T03:45:39;18.23;;;8.17;;
3573;SDS011;1801;51.050;6.246;2023-03-07T03:48:05;15.57;;;6.80;;
3573;SDS011;1801;51.050;6.246;2023-03-07T03:50:30;9.47;;;4.67;;
3573;SDS011;1801;51.050;6.246;2023-03-07T03:52:55;16.43;;;7.97;;
3573;SDS011;1801;51.050;6.246;2023-03-07T03:55:20;14.70;;;6.77;;
3573;SDS011;1801;51.050;6.246;2023-03-07T03:57:45;13.20;;;6.80;;
3573;SDS011;1801;51.050;6.246;2023-03-07T04:00:11;22.90;;;8.90;;
3573;SDS011;1801;51.050;6.246;2023-03-07T04:02:39;15.68;;;7.90;;
3573;SDS011;1801;51.050;6.246;2023-03-07T04:05:04;20.73;;;8.27;;
3573;SDS011;1801;51.050;6.246;2023-03-07T04:07:29;14.83;;;7.17;;
3573;SDS011;1801;51.050;6.246;2023-03-07T04:09:54;10.97;;;5.87;;
3573;SDS011;1801;51.050;6.246;2023-03-07T04:12:20;15.97;;;8.00;;
3573;SDS011;1801;51.050;6.246;2023-03-07T04:14:45;7.70;;;5.63;;
3573;SDS011;1801;51.050;6.246;2023-03-07T04:17:10;13.43;;;6.03;;
3573;SDS011;1801;51.050;6.246;2023-03-07T04:19:36;15.20;;;7.20;;
3573;SDS011;1801;51.050;6.246;2023-03-07T04:22:01;14.87;;;6.50;;
3573;SDS011;1801;51.050;6.246;2023-03-07T04:24:26;11.73;;;5.80;;
3573;SDS011;1801;51.050;6.246;2023-03-07T04:26:51;12.90;;;6.90;;
3573;SDS011;1801;51.050;6.246;2023-03-07T04:29:16;18.83;;;7.20;;
3573;SDS011;1801;51.050;6.246;2023-03-07T04:31:41;22.20;;;8.17;;
3573;SDS011;1801;51.050;6.246;2023-03-07T04:34:07;13.00;;;6.50;;
3573;SDS011;1801;51.050;6.246;2023-03-07T04:36:32;17.00;;;8.10;;
3573;SDS011;1801;51.050;6.246;2023-03-07T04:38:58;18.73;;;9.27;;
3573;SDS011;1801;51.050;6.246;2023-03-07T04:41:23;16.90;;;7.53;;
3573;SDS011;1801;51.050;6.246;2023-03-07T04:43:50;13.95;;;7.60;;
3573;SDS011;1801;51.050;6.246;2023-03-07T04:46:15;19.93;;;9.17;;
3573;SDS011;1801;51.050;6.246;2023-03-07T04:48:41;18.90;;;8.07;;
3573;SDS011;1801;51.050;6.246;2023-03-07T04:51:06;18.80;;;9.40;;
3573;SDS011;1801;51.050;6.246;2023-03-07T04:53:32;14.33;;;6.40;;
3573;SDS011;1801;51.050;6.246;2023-03-07T04:56:01;14.23;;;7.80;;
3573;SDS011;1801;51.050;6.246;2023-03-07T04:58:26;18.05;;;7.90;;
3573;SDS011;1801;51.050;6.246;2023-03-07T05:00:52;11.37;;;7.03;;
3573;SDS011;1801;51.050;6.246;2023-03-07T05:03:17;11.73;;;6.90;;
3573;SDS011;1801;51.050;6.246;2023-03-07T05:05:42;16.60;;;8.20;;
3573;SDS011;1801;51.050;6.246;2023-03-07T05:08:07;13.00;;;6.33;;
3573;SDS011;1801;51.050;6.246;2023-03-07T05:10:33;13.47;;;8.70;;
3573;SDS011;1801;51.050;6.246;2023-03-07T05:12:58;17.60;;;6.97;;
3573;SDS011;1801;51.050;6.246;2023-03-07T05:15:23;9.37;;;4.90;;
3573;SDS011;1801;51.050;6.246;2023-03-07T05:17:49;16.70;;;6.23;;
3573;SDS011;1801;51.050;6.246;2023-03-07T05:20:14;18.23;;;6.93;;
3573;SDS011;1801;51.050;6.246;2023-03-07T05:22:39;16.80;;;6.77;;
3573;SDS011;1801;51.050;6.246;2023-03-07T05:25:05;12.90;;;6.20;;
3573;SDS011;1801;51.050;6.246;2023-03-07T05:27:30;21.50;;;10.03;;
3573;SDS011;1801;51.050;6.246;2023-03-07T05:29:55;11.30;;;5.30;;
3573;SDS011;1801;51.050;6.246;2023-03-07T05:32:20;11.77;;;5.73;;
3573;SDS011;1801;51.050;6.246;2023-03-07T05:34:45;20.77;;;9.50;;
3573;SDS011;1801;51.050;6.246;2023-03-07T05:37:12;6.90;;;4.22;;
3573;SDS011;1801;51.050;6.246;2023-03-07T05:39:37;11.17;;;6.47;;
3573;SDS011;1801;51.050;6.246;2023-03-07T05:42:03;15.23;;;6.63;;
3573;SDS011;1801;51.050;6.246;2023-03-07T05:44:28;12.40;;;4.27;;
3573;SDS011;1801;51.050;6.246;2023-03-07T05:46:53;10.80;;;6.30;;
3573;SDS011;1801;51.050;6.246;2023-03-07T05:49:18;16.17;;;7.07;;
3573;SDS011;1801;51.050;6.246;2023-03-07T05:51:43;18.40;;;8.43;;
3573;SDS011;1801;51.050;6.246;2023-03-07T05:54:09;29.07;;;9.13;;
3573;SDS011;1801;51.050;6.246;2023-03-07T05:56:34;19.70;;;4.80;;
3573;SDS011;1801;51.050;6.246;2023-03-07T05:58:59;12.30;;;6.43;;
3573;SDS011;1801;51.050;6.246;2023-03-07T06:01:24;11.83;;;5.33;;
3573;SDS011;1801;51.050;6.246;2023-03-07T06:03:49;17.07;;;8.07;;
3573;SDS011;1801;51.050;6.246;2023-03-07T06:06:14;14.50;;;5.90;;
3573;SDS011;1801;51.050;6.246;2023-03-07T06:08:40;16.37;;;7.47;;
3573;SDS011;1801;51.050;6.246;2023-03-07T06:11:05;23.90;;;7.60;;
3573;SDS011;1801;51.050;6.246;2023-03-07T06:13:30;15.70;;;7.90;;
3573;SDS011;1801;51.050;6.246;2023-03-07T06:15:55;15.37;;;6.33;;
3573;SDS011;1801;51.050;6.246;2023-03-07T06:18:21;14.60;;;5.83;;
3573;SDS011;1801;51.050;6.246;2023-03-07T06:20:54;9.70;;;5.10;;
3573;SDS011;1801;51.050;6.246;2023-03-07T06:23:19;16.08;;;7.70;;
3573;SDS011;1801;51.050;6.246;2023-03-07T06:25:44;18.70;;;8.73;;
3573;SDS011;1801;51.050;6.246;2023-03-07T06:28:09;17.50;;;9.07;;
3573;SDS011;1801;51.050;6.246;2023-03-07T06:30:35;13.53;;;6.27;;
3573;SDS011;1801;51.050;6.246;2023-03-07T06:33:00;11.00;;;5.93;;
3573;SDS011;1801;51.050;6.246;2023-03-07T06:35:25;27.50;;;8.40;;
3573;SDS011;1801;51.050;6.246;2023-03-07T06:37:50;17.23;;;8.20;;
3573;SDS011;1801;51.050;6.246;2023-03-07T06:40:16;21.90;;;8.00;;
3573;SDS011;1801;51.050;6.246;2023-03-07T06:42:41;18.33;;;8.93;;
3573;SDS011;1801;51.050;6.246;2023-03-07T06:45:06;17.97;;;8.27;;
3573;SDS011;1801;51.050;6.246;2023-03-07T06:47:31;13.43;;;6.77;;
3573;SDS011;1801;51.050;6.246;2023-03-07T06:49:57;13.43;;;6.57;;
3573;SDS011;1801;51.050;6.246;2023-03-07T06:52:22;15.10;;;6.77;;
3573;SDS011;1801;51.050;6.246;2023-03-07T06:54:47;18.97;;;7.37;;
3573;SDS011;1801;51.050;6.246;2023-03-07T06:57:12;23.07;;;9.07;;
3573;SDS011;1801;51.050;6.246;2023-03-07T06:59:38;14.77;;;6.37;;
3573;SDS011;1801;51.050;6.246;2023-03-07T07:02:03;18.33;;;7.73;;
3573;SDS011;1801;51.050;6.246;2023-03-07T07:04:28;11.40;;;6.40;;
3573;SDS011;1801;51.050;6.246;2023-03-07T07:06:53;15.23;;;6.77;;
3573;SDS011;1801;51.050;6.246;2023-03-07T07:09:19;12.23;;;5.50;;
3573;SDS011;1801;51.050;6.246;2023-03-07T07:11:44;14.20;;;7.17;;
3573;SDS011;1801;51.050;6.246;2023-03-07T07:14:09;13.97;;;5.13;;
3573;SDS011;1801;51.050;6.246;2023-03-07T07:16:35;15.07;;;7.10;;
3573;SDS011;1801;51.050;6.246;2023-03-07T07:19:00;16.70;;;5.93;;
3573;SDS011;1801;51.050;6.246;2023-03-07T07:21:25;16.70;;;7.37;;
3573;SDS011;1801;51.050;6.246;2023-03-07T07:23:50;18.17;;;7.90;;
3573;SDS011;1801;51.050;6.246;2023-03-07T07:26:15;14.60;;;6.93;;
3573;SDS011;1801;51.050;6.246;2023-03-07T07:28:41;14.33;;;8.20;;
3573;SDS011;1801;51.050;6.246;2023-03-07T07:31:06;16.40;;;7.40;;
3573;SDS011;1801;51.050;6.246;2023-03-07T07:33:31;12.67;;;6.00;;
3573;SDS011;1801;51.050;6.246;2023-03-07T07:35:56;7.87;;;5.07;;
3573;SDS011;1801;51.050;6.246;2023-03-07T07:38:22;12.17;;;5.57;;
3573;SDS011;1801;51.050;6.246;2023-03-07T07:40:47;14.77;;;6.70;;
3573;SDS011;1801;51.050;6.246;2023-03-07T07:43:15;15.10;;;6.23;;
3573;SDS011;1801;51.050;6.246;2023-03-07T07:45:40;14.68;;;7.13;;
3573;SDS011;1801;51.050;6.246;2023-03-07T07:48:06;12.50;;;5.03;;
3573;SDS011;1801;51.050;6.246;2023-03-07T07:50:31;10.47;;;5.07;;
3573;SDS011;1801;51.050;6.246;2023-03-07T07:52:56;10.20;;;5.90;;
3573;SDS011;1801;51.050;6.246;2023-03-07T07:55:21;5.67;;;4.23;;
3573;SDS011;1801;51.050;6.246;2023-03-07T07:57:48;14.88;;;4.78;;
3573;SDS011;1801;51.050;6.246;2023-03-07T08:00:15;9.90;;;5.23;;
3573;SDS011;1801;51.050;6.246;2023-03-07T08:02:45;11.93;;;5.10;;
3573;SDS011;1801;51.050;6.246;2023-03-07T08:05:10;9.90;;;5.63;;
3573;SDS011;1801;51.050;6.246;2023-03-07T08:07:36;16.60;;;7.70;;
3573;SDS011;1801;51.050;6.246;2023-03-07T08:10:01;10.77;;;6.13;;
3573;SDS011;1801;51.050;6.246;2023-03-07T08:12:27;8.97;;;4.83;;
3573;SDS011;1801;51.050;6.246;2023-03-07T08:14:52;10.53;;;4.80;;
3573;SDS011;1801;51.050;6.246;2023-03-07T08:17:17;14.07;;;6.53;;
3573;SDS011;1801;51.050;6.246;2023-03-07T08:19:42;11.80;;;5.27;;
3573;SDS011;1801;51.050;6.246;2023-03-07T08:22:07;9.53;;;6.13;;
3573;SDS011;1801;51.050;6.246;2023-03-07T08:24:32;16.90;;;7.40;;
3573;SDS011;1801;51.050;6.246;2023-03-07T08:26:59;15.75;;;7.55;;
3573;SDS011;1801;51.050;6.246;2023-03-07T08:29:24;12.40;;;4.80;;
3573;SDS011;1801;51.050;6.246;2023-03-07T08:31:49;13.90;;;6.87;;
3573;SDS011;1801;51.050;6.246;2023-03-07T08:34:17;10.18;;;5.30;;
3573;SDS011;1801;51.050;6.246;2023-03-07T08:36:42;16.20;;;6.27;;
3573;SDS011;1801;51.050;6.246;2023-03-07T08:39:07;10.97;;;4.80;;
3573;SDS011;1801;51.050;6.246;2023-03-07T08:41:33;7.83;;;4.20;;
3573;SDS011;1801;51.050;6.246;2023-03-07T08:43:58;15.97;;;6.67;;
3573;SDS011;1801;51.050;6.246;2023-03-07T08:46:23;10.70;;;4.73;;
3573;SDS011;1801;51.050;6.246;2023-03-07T08:48:48;6.93;;;4.27;;
3573;SDS011;1801;51.050;6.246;2023-03-07T08:51:14;8.23;;;3.87;;
3573;SDS011;1801;51.050;6.246;2023-03-07T08:53:39;13.85;;;6.03;;
3573;SDS011;1801;51.050;6.246;2023-03-07T08:56:07;23.90;;;7.00;;
3573;SDS011;1801;51.050;6.246;2023-03-07T08:58:32;8.80;;;5.13;;
3573;SDS011;1801;51.050;6.246;2023-03-07T09:00:58;8.30;;;4.80;;
3573;SDS011;1801;51.050;6.246;2023-03-07T09:03:23;11.50;;;5.63;;
3573;SDS011;1801;51.050;6.246;2023-03-07T09:05:48;9.63;;;5.13;;
3573;SDS011;1801;51.050;6.246;2023-03-07T09:08:13;12.60;;;3.70;;
3573;SDS011;1801;51.050;6.246;2023-03-07T09:10:39;12.87;;;5.70;;
3573;SDS011;1801;51.050;6.246;2023-03-07T09:13:04;7.70;;;4.20;;
3573;SDS011;1801;51.050;6.246;2023-03-07T09:15:29;10.20;;;5.10;;
3573;SDS011;1801;51.050;6.246;2023-03-07T09:17:54;12.43;;;5.67;;
3573;SDS011;1801;51.050;6.246;2023-03-07T09:20:20;11.57;;;5.40;;
3573;SDS011;1801;51.050;6.246;2023-03-07T09:22:45;8.27;;;3.97;;
3573;SDS011;1801;51.050;6.246;2023-03-07T09:25:15;12.73;;;6.00;;
3573;SDS011;1801;51.050;6.246;2023-03-07T09:27:40;15.63;;;6.10;;
3573;SDS011;1801;51.050;6.246;2023-03-07T09:30:06;13.47;;;7.23;;
3573;SDS011;1801;51.050;6.246;2023-03-07T09:32:31;17.50;;;6.77;;
3573;SDS011;1801;51.050;6.246;2023-03-07T09:34:57;13.68;;;5.55;;
3573;SDS011;1801;51.050;6.246;2023-03-07T09:37:22;8.03;;;4.50;;
3573;SDS011;1801;51.050;6.246;2023-03-07T09:39:48;18.60;;;6.07;;
3573;SDS011;1801;51.050;6.246;2023-03-07T09:42:17;8.90;;;5.50;;
3573;SDS011;1801;51.050;6.246;2023-03-07T09:49:43;9.90;;;5.38;;
3573;SDS011;1801;51.050;6.246;2023-03-07T09:52:11;10.68;;;5.00;;
3573;SDS011;1801;51.050;6.246;2023-03-07T09:54:43;12.45;;;6.03;;
3573;SDS011;1801;51.050;6.246;2023-03-07T09:57:16;10.32;;;4.57;;
3573;SDS011;1801;51.050;6.246;2023-03-07T09:59:46;12.73;;;5.68;;
3573;SDS011;1801;51.050;6.246;2023-03-07T10:02:29;11.68;;;5.50;;
3573;SDS011;1801;51.050;6.246;2023-03-07T10:07:22;9.80;;;4.40;;
3573;SDS011;1801;51.050;6.246;2023-03-07T10:09:50;8.48;;;4.55;;
3573;SDS011;1801;51.050;6.246;2023-03-07T10:14:47;11.43;;;5.35;;
3573;SDS011;1801;51.050;6.246;2023-03-07T10:20:05;10.82;;;5.40;;
3573;SDS011;1801;51.050;6.246;2023-03-07T10:25:10;10.13;;;4.77;;
3573;SDS011;1801;51.050;6.246;2023-03-07T10:27:37;8.75;;;5.15;;
3573;SDS011;1801;51.050;6.246;2023-03-07T10:30:08;8.57;;;4.53;;
3573;SDS011;1801;51.050;6.246;2023-03-07T10:32:44;6.35;;;4.90;;
3573;SDS011;1801;51.050;6.246;2023-03-07T10:40:30;10.77;;;6.53;;
3573;SDS011;1801;51.050;6.246;2023-03-07T10:42:57;13.13;;;6.22;;
3573;SDS011;1801;51.050;6.246;2023-03-07T10:45:23;16.85;;;7.68;;
3573;SDS011;1801;51.050;6.246;2023-03-07T10:47:51;16.77;;;8.27;;
3573;SDS011;1801;51.050;6.246;2023-03-07T10:52:48;21.88;;;10.25;;
3573;SDS011;1801;51.050;6.246;2023-03-07T10:58:10;15.70;;;6.97;;
3573;SDS011;1801;51.050;6.246;2023-03-07T11:00:36;16.67;;;7.63;;
3573;SDS011;1801;51.050;6.246;2023-03-07T11:03:01;16.30;;;6.87;;
3573;SDS011;1801;51.050;6.246;2023-03-07T11:05:30;14.73;;;6.47;;
3573;SDS011;1801;51.050;6.246;2023-03-07T11:07:57;16.45;;;6.93;;
3573;SDS011;1801;51.050;6.246;2023-03-07T11:10:24;11.67;;;7.10;;
3573;SDS011;1801;51.050;6.246;2023-03-07T11:12:51;19.35;;;7.97;;
3573;SDS011;1801;51.050;6.246;2023-03-07T11:15:20;19.83;;;8.77;;
3573;SDS011;1801;51.050;6.246;2023-03-07T11:17:47;15.82;;;7.30;;
3573;SDS011;1801;51.050;6.246;2023-03-07T11:20:20;14.20;;;6.90;;
3573;SDS011;1801;51.050;6.246;2023-03-07T11:22:46;11.27;;;5.95;;
3573;SDS011;1801;51.050;6.246;2023-03-07T11:27:38;12.80;;;6.07;;
3573;SDS011;1801;51.050;6.246;2023-03-07T11:30:46;11.50;;;5.88;;
3573;SDS011;1801;51.050;6.246;2023-03-07T11:32:53;10.25;;;4.88;;
3573;SDS011;1801;51.050;6.246;2023-03-07T11:35:24;11.27;;;4.13;;
3573;SDS011;1801;51.050;6.246;2023-03-07T11:37:56;7.60;;;4.35;;
3573;SDS011;1801;51.050;6.246;2023-03-07T11:40:31;7.85;;;4.00;;
3573;SDS011;1801;51.050;6.246;2023-03-07T11:47:53;8.10;;;3.70;;
3573;SDS011;1801;51.050;6.246;2023-03-07T11:50:24;6.80;;;3.60;;
3573;SDS011;1801;51.050;6.246;2023-03-07T11:55:44;12.50;;;4.05;;
3573;SDS011;1801;51.050;6.246;2023-03-07T12:11:39;9.68;;;4.95;;
3573;SDS011;1801;51.050;6.246;2023-03-07T12:17:03;10.23;;;5.68;;
3573;SDS011;1801;51.050;6.246;2023-03-07T12:24:50;20.30;;;8.55;;
3573;SDS011;1801;51.050;6.246;2023-03-07T12:27:22;26.08;;;9.32;;
3573;SDS011;1801;51.050;6.246;2023-03-07T12:29:50;21.38;;;8.43;;
3573;SDS011;1801;51.050;6.246;2023-03-07T12:32:24;20.98;;;8.77;;
3573;SDS011;1801;51.050;6.246;2023-03-07T12:34:54;15.27;;;6.30;;
3573;SDS011;1801;51.050;6.246;2023-03-07T12:37:29;10.63;;;5.55;;
3573;SDS011;1801;51.050;6.246;2023-03-07T12:39:58;7.05;;;3.20;;
3573;SDS011;1801;51.050;6.246;2023-03-07T12:42:32;6.97;;;2.67;;
3573;SDS011;1801;51.050;6.246;2023-03-07T12:45:03;8.90;;;2.45;;
3573;SDS011;1801;51.050;6.246;2023-03-07T12:47:35;3.28;;;2.05;;
3573;SDS011;1801;51.050;6.246;2023-03-07T12:50:09;4.20;;;2.70;;
3573;SDS011;1801;51.050;6.246;2023-03-07T12:55:52;3.38;;;2.70;;
3573;SDS011;1801;51.050;6.246;2023-03-07T12:58:04;4.38;;;2.40;;
3573;SDS011;1801;51.050;6.246;2023-03-07T13:00:31;3.40;;;2.33;;
3573;SDS011;1801;51.050;6.246;2023-03-07T13:03:00;4.45;;;2.97;;
3573;SDS011;1801;51.050;6.246;2023-03-07T13:05:26;3.20;;;2.33;;
3573;SDS011;1801;51.050;6.246;2023-03-07T13:07:51;3.17;;;2.37;;
3573;SDS011;1801;51.050;6.246;2023-03-07T13:10:18;5.43;;;2.57;;
3573;SDS011;1801;51.050;6.246;2023-03-07T13:12:44;3.67;;;2.35;;
3573;SDS011;1801;51.050;6.246;2023-03-07T13:27:49;6.15;;;2.60;;
3573;SDS011;1801;51.050;6.246;2023-03-07T13:43:00;5.00;;;2.00;;
3573;SDS011;1801;51.050;6.246;2023-03-07T13:45:44;5.15;;;3.03;;
3573;SDS011;1801;51.050;6.246;2023-03-07T13:48:10;4.25;;;2.60;;
3573;SDS011;1801;51.050;6.246;2023-03-07T13:50:37;3.88;;;2.78;;
3573;SDS011;1801;51.050;6.246;2023-03-07T13:53:09;4.30;;;2.95;;
3573;SDS011;1801;51.050;6.246;2023-03-07T13:55:39;7.32;;;3.58;;
3573;SDS011;1801;51.050;6.246;2023-03-07T13:58:13;8.50;;;4.88;;
3573;SDS011;1801;51.050;6.246;2023-03-07T14:00:40;4.93;;;3.38;;
3573;SDS011;1801;51.050;6.246;2023-03-07T14:03:16;8.45;;;3.67;;
3573;SDS011;1801;51.050;6.246;2023-03-07T14:05:45;5.97;;;3.38;;
3573;SDS011;1801;51.050;6.246;2023-03-07T14:08:11;4.73;;;2.70;;
3573;SDS011;1801;51.050;6.246;2023-03-07T14:10:38;12.68;;;3.95;;
3573;SDS011;1801;51.050;6.246;2023-03-07T14:28:36;11.30;;;5.63;;
3573;SDS011;1801;51.050;6.246;2023-03-07T14:31:15;8.15;;;4.38;;
3573;SDS011;1801;51.050;6.246;2023-03-07T14:33:43;11.65;;;4.65;;
3573;SDS011;1801;51.050;6.246;2023-03-07T14:39:03;8.30;;;4.35;;
3573;SDS011;1801;51.050;6.246;2023-03-07T14:41:38;9.05;;;4.68;;
3573;SDS011;1801;51.050;6.246;2023-03-07T14:49:31;6.00;;;3.10;;
3573;SDS011;1801;51.050;6.246;2023-03-07T14:51:59;6.80;;;3.30;;
3573;SDS011;1801;51.050;6.246;2023-03-07T14:54:27;10.15;;;4.55;;
3573;SDS011;1801;51.050;6.246;2023-03-07T14:56:54;23.33;;;5.18;;
3573;SDS011;1801;51.050;6.246;2023-03-07T14:59:19;15.17;;;6.53;;
3573;SDS011;1801;51.050;6.246;2023-03-07T15:01:47;8.53;;;3.57;;
3573;SDS011;1801;51.050;6.246;2023-03-07T15:04:26;9.85;;;4.78;;
3573;SDS011;1801;51.050;6.246;2023-03-07T15:06:53;12.60;;;5.13;;
3573;SDS011;1801;51.050;6.246;2023-03-07T15:09:19;10.60;;;5.63;;
3573;SDS011;1801;51.050;6.246;2023-03-07T15:12:06;13.83;;;5.97;;
3573;SDS011;1801;51.050;6.246;2023-03-07T15:14:33;12.20;;;5.50;;
3573;SDS011;1801;51.050;6.246;2023-03-07T15:17:00;16.17;;;6.20;;
3573;SDS011;1801;51.050;6.246;2023-03-07T15:19:41;15.75;;;7.72;;
3573;SDS011;1801;51.050;6.246;2023-03-07T15:22:24;18.63;;;6.88;;
3573;SDS011;1801;51.050;6.246;2023-03-07T15:24:50;15.23;;;7.13;;
3573;SDS011;1801;51.050;6.246;2023-03-07T15:27:36;21.58;;;7.95;;
3573;SDS011;1801;51.050;6.246;2023-03-07T15:30:01;15.85;;;7.43;;
3573;SDS011;1801;51.050;6.246;2023-03-07T15:32:28;16.33;;;7.13;;
3573;SDS011;1801;51.050;6.246;2023-03-07T15:37:40;14.85;;;7.20;;
3573;SDS011;1801;51.050;6.246;2023-03-07T15:42:48;34.50;;;12.77;;
3573;SDS011;1801;51.050;6.246;2023-03-07T15:47:51;35.60;;;12.95;;
3573;SDS011;1801;51.050;6.246;2023-03-07T15:50:21;29.57;;;12.43;;
3573;SDS011;1801;51.050;6.246;2023-03-07T15:52:49;36.03;;;13.20;;
3573;SDS011;1801;51.050;6.246;2023-03-07T15:55:16;27.08;;;11.88;;
3573;SDS011;1801;51.050;6.246;2023-03-07T16:00:15;26.17;;;11.02;;
3573;SDS011;1801;51.050;6.246;2023-03-07T16:02:48;33.28;;;11.48;;
3573;SDS011;1801;51.050;6.246;2023-03-07T16:07:38;27.93;;;13.70;;
3573;SDS011;1801;51.050;6.246;2023-03-07T16:10:04;31.03;;;12.30;;
3573;SDS011;1801;51.050;6.246;2023-03-07T16:12:29;24.27;;;11.87;;
3573;SDS011;1801;51.050;6.246;2023-03-07T16:14:54;27.27;;;11.47;;
3573;SDS011;1801;51.050;6.246;2023-03-07T16:17:29;28.90;;;12.52;;
3573;SDS011;1801;51.050;6.246;2023-03-07T16:19:56;30.83;;;11.95;;
3573;SDS011;1801;51.050;6.246;2023-03-07T16:22:21;33.23;;;12.30;;
3573;SDS011;1801;51.050;6.246;2023-03-07T16:24:46;26.20;;;11.97;;
3573;SDS011;1801;51.050;6.246;2023-03-07T16:27:15;32.73;;;11.53;;
3573;SDS011;1801;51.050;6.246;2023-03-07T16:29:41;32.78;;;12.10;;
3573;SDS011;1801;51.050;6.246;2023-03-07T16:32:09;33.27;;;13.20;;
3573;SDS011;1801;51.050;6.246;2023-03-07T16:34:36;25.98;;;11.00;;
3573;SDS011;1801;51.050;6.246;2023-03-07T16:37:01;20.27;;;10.20;;
3573;SDS011;1801;51.050;6.246;2023-03-07T16:39:26;29.23;;;13.07;;
3573;SDS011;1801;51.050;6.246;2023-03-07T16:41:51;28.70;;;10.17;;
3573;SDS011;1801;51.050;6.246;2023-03-07T16:44:17;29.13;;;12.77;;
3573;SDS011;1801;51.050;6.246;2023-03-07T16:46:43;26.90;;;11.77;;
3573;SDS011;1801;51.050;6.246;2023-03-07T16:49:13;24.03;;;10.90;;
3573;SDS011;1801;51.050;6.246;2023-03-07T16:51:39;32.97;;;11.55;;
3573;SDS011;1801;51.050;6.246;2023-03-07T16:54:04;34.17;;;11.53;;
3573;SDS011;1801;51.050;6.246;2023-03-07T16:56:30;34.50;;;13.97;;
3573;SDS011;1801;51.050;6.246;2023-03-07T16:58:57;28.15;;;12.07;;
3573;SDS011;1801;51.050;6.246;2023-03-07T17:01:22;29.92;;;13.35;;
3573;SDS011;1801;51.050;6.246;2023-03-07T17:03:47;33.00;;;14.17;;
3573;SDS011;1801;51.050;6.246;2023-03-07T17:06:13;37.73;;;14.40;;